Time;durP1;ratioP1;P1;durP2;ratioP2;P2;SDS_P1;SDS_P2;PMS_P1;PMS_P2;Temp;Humidity;BMP_temperature;BMP_pressure;BME280_temperature;BME280_humidity;BME280_pressure;Samples;Min_cycle;Max_cycle;Signal;HPM_P1;HPM_P2
2023/12/11 00:01:48;;;;;;;2.53;0.85;;;10.00;99.90;;;;;;4950005;29;20063;-51
2023/12/11 00:04:13;;;;;;;1.25;0.95;;;10.00;99.90;;;;;;4950255;29;20470;-50
2023/12/11 00:06:39;;;;;;;3.47;0.95;;;10.00;99.90;;;;;;4950063;29;20028;-51
2023/12/11 00:09:04;;;;;;;2.65;1.10;;;10.00;99.90;;;;;;4950319;29;20023;-47
2023/12/11 00:11:30;;;;;;;5.32;1.42;;;9.90;99.90;;;;;;4950136;29;20043;-52
2023/12/11 00:13:55;;;;;;;2.83;1.60;;;9.90;99.90;;;;;;4950149;29;20063;-47
2023/12/11 00:16:21;;;;;;;5.15;2.63;;;9.80;99.90;;;;;;4950074;29;20042;-46
2023/12/11 00:18:48;;;;;;;2.85;1.35;;;9.80;99.90;;;;;;4953110;28;20031;-48
2023/12/11 00:21:14;;;;;;;1.65;1.10;;;9.70;99.90;;;;;;4953107;29;20547;-46
2023/12/11 00:23:40;;;;;;;5.57;1.17;;;9.70;99.90;;;;;;4953295;29;20027;-48
2023/12/11 00:26:05;;;;;;;7.50;1.50;;;9.70;99.90;;;;;;4936109;29;20020;-50
2023/12/11 00:28:31;;;;;;;4.88;1.40;;;9.60;99.90;;;;;;4936258;29;20031;-47
2023/12/11 00:30:56;;;;;;;3.60;1.05;;;9.60;99.90;;;;;;4952924;29;20030;-51
2023/12/11 00:33:22;;;;;;;3.13;1.30;;;9.60;99.90;;;;;;4953113;29;20039;-50
2023/12/11 00:35:47;;;;;;;1.98;1.10;;;9.60;99.90;;;;;;4953174;29;20514;-47
2023/12/11 00:38:13;;;;;;;11.73;1.67;;;9.50;99.90;;;;;;4953234;29;20031;-52
2023/12/11 00:40:38;;;;;;;3.63;1.27;;;9.60;99.90;;;;;;4936009;29;20077;-47
2023/12/11 00:43:04;;;;;;;4.57;1.08;;;9.60;99.90;;;;;;4952963;29;20032;-50
2023/12/11 00:45:29;;;;;;;5.97;1.55;;;9.60;99.90;;;;;;4953049;29;20027;-48
2023/12/11 00:47:55;;;;;;;4.78;1.15;;;9.60;99.90;;;;;;4985294;22;20047;-50
2023/12/11 00:50:20;;;;;;;1.60;1.33;;;9.60;99.90;;;;;;4972127;28;20023;-50
2023/12/11 00:52:46;;;;;;;1.15;0.90;;;9.70;99.90;;;;;;4956578;28;20089;-50
2023/12/11 00:55:11;;;;;;;3.17;1.00;;;9.70;99.90;;;;;;4951810;28;20027;-48
2023/12/11 00:57:37;;;;;;;2.60;1.05;;;9.70;99.90;;;;;;4952857;28;20103;-49
2023/12/11 01:00:03;;;;;;;1.77;1.20;;;9.70;99.90;;;;;;4953093;28;20031;-52
2023/12/11 01:02:28;;;;;;;2.55;0.85;;;9.70;99.90;;;;;;4952370;29;20110;-51
2023/12/11 01:04:54;;;;;;;1.08;0.98;;;9.70;99.90;;;;;;4952791;28;20031;-53
2023/12/11 01:07:20;;;;;;;3.63;1.20;;;9.70;99.90;;;;;;4952546;29;20031;-53
2023/12/11 01:09:45;;;;;;;3.83;1.42;;;9.80;99.90;;;;;;4952643;28;20019;-53
2023/12/11 01:12:11;;;;;;;5.15;1.02;;;9.70;99.90;;;;;;4952373;28;20024;-49
2023/12/11 01:14:37;;;;;;;1.88;0.80;;;9.80;99.90;;;;;;4935461;28;20027;-52
2023/12/11 01:17:03;;;;;;;3.97;1.38;;;9.80;99.90;;;;;;4952459;29;20035;-49
2023/12/11 01:19:28;;;;;;;1.88;1.00;;;9.80;99.90;;;;;;4952375;29;20035;-50
2023/12/11 01:21:54;;;;;;;4.10;1.30;;;9.80;99.90;;;;;;4952731;28;20027;-53
2023/12/11 01:24:19;;;;;;;3.80;1.15;;;9.80;99.90;;;;;;4935355;28;20074;-50
2023/12/11 01:26:45;;;;;;;2.13;1.02;;;9.80;99.90;;;;;;4952531;28;20034;-51
2023/12/11 01:29:10;;;;;;;4.22;0.95;;;9.80;99.90;;;;;;4934778;28;20034;-49
2023/12/11 01:31:36;;;;;;;2.30;1.17;;;9.80;99.90;;;;;;4951932;28;20310;-49
2023/12/11 01:34:01;;;;;;;3.85;1.45;;;9.80;99.90;;;;;;4952370;28;20486;-54
2023/12/11 01:36:27;;;;;;;2.05;0.95;;;9.70;99.90;;;;;;4952357;28;20422;-51
2023/12/11 01:38:53;;;;;;;1.75;1.00;;;9.70;99.90;;;;;;4952466;28;20046;-49
2023/12/11 01:41:19;;;;;;;3.35;0.88;;;9.70;99.90;;;;;;4951888;29;20035;-47
2023/12/11 01:43:52;;;;;;;3.10;0.93;;;9.70;99.90;;;;;;4952103;28;20400;-53
2023/12/11 01:46:18;;;;;;;2.90;1.25;;;9.70;99.90;;;;;;4919210;28;20063;-54
2023/12/11 01:48:45;;;;;;;2.03;1.20;;;9.70;99.90;;;;;;4951968;29;20456;-52
2023/12/11 01:51:13;;;;;;;3.42;1.13;;;9.70;99.90;;;;;;4951989;29;20068;-51
2023/12/11 01:53:39;;;;;;;3.10;1.20;;;9.70;99.90;;;;;;4951906;29;20074;-48
2023/12/11 01:56:05;;;;;;;2.15;1.13;;;9.80;99.90;;;;;;4951886;29;20106;-50
2023/12/11 01:58:31;;;;;;;1.40;1.00;;;9.80;99.90;;;;;;4951960;29;20103;-49
2023/12/11 02:00:56;;;;;;;1.50;0.90;;;9.80;99.90;;;;;;4951763;29;20078;-50
2023/12/11 02:03:22;;;;;;;3.03;1.00;;;9.90;99.90;;;;;;4951753;28;20175;-50
2023/12/11 02:05:49;;;;;;;1.23;1.00;;;9.80;99.90;;;;;;4952413;28;20071;-55
2023/12/11 02:08:15;;;;;;;2.75;1.05;;;9.80;99.90;;;;;;4951732;29;20031;-52
2023/12/11 02:10:41;;;;;;;2.78;1.25;;;9.80;99.90;;;;;;4952125;28;20031;-50
2023/12/11 02:13:07;;;;;;;4.75;1.90;;;9.80;99.90;;;;;;4951500;29;20110;-51
2023/12/11 02:15:41;;;;;;;2.42;1.15;;;9.80;99.90;;;;;;4951655;29;20047;-51
2023/12/11 02:18:08;;;;;;;3.72;1.13;;;9.80;99.90;;;;;;4951659;29;20074;-53
2023/12/11 02:20:33;;;;;;;2.75;0.90;;;9.80;99.90;;;;;;4951683;29;20073;-55
2023/12/11 02:23:03;;;;;;;1.98;1.20;;;9.80;99.90;;;;;;4951247;28;20035;-55
2023/12/11 02:25:31;;;;;;;4.65;1.88;;;9.70;99.90;;;;;;4951525;28;20065;-54
2023/12/11 02:27:57;;;;;;;2.55;1.00;;;9.70;99.90;;;;;;4951505;29;20019;-56
2023/12/11 02:30:24;;;;;;;1.73;0.98;;;9.70;99.90;;;;;;4951559;29;20026;-54
2023/12/11 02:32:52;;;;;;;2.08;1.25;;;9.60;99.90;;;;;;4950893;28;20035;-55
2023/12/11 02:35:18;;;;;;;2.15;1.10;;;9.50;99.90;;;;;;4951515;28;20102;-55
2023/12/11 02:37:43;;;;;;;2.35;1.40;;;9.50;99.90;;;;;;4951475;28;20102;-54
2023/12/11 02:40:09;;;;;;;1.67;1.13;;;9.50;99.90;;;;;;4950869;28;20035;-56
2023/12/11 02:42:34;;;;;;;5.28;2.40;;;9.50;99.90;;;;;;4950293;28;20042;-52
2023/12/11 02:45:00;;;;;;;1.20;0.98;;;9.40;99.90;;;;;;4934134;28;20019;-51
2023/12/11 02:47:25;;;;;;;1.20;1.10;;;9.40;99.90;;;;;;4951064;28;20043;-51
2023/12/11 02:49:50;;;;;;;3.88;1.77;;;9.30;99.90;;;;;;4934033;28;20547;-49
2023/12/11 02:52:16;;;;;;;3.03;1.55;;;9.40;99.90;;;;;;4951073;28;20046;-52
2023/12/11 02:54:41;;;;;;;2.15;1.30;;;9.40;99.90;;;;;;4951238;28;20394;-52
2023/12/11 02:57:07;;;;;;;4.80;1.17;;;9.40;99.90;;;;;;4951141;28;20260;-53
2023/12/11 02:59:32;;;;;;;2.10;1.38;;;9.40;99.90;;;;;;4951305;28;20102;-50
2023/12/11 03:01:58;;;;;;;2.45;1.30;;;9.50;99.90;;;;;;4933589;28;20636;-55
2023/12/11 03:04:23;;;;;;;1.55;1.00;;;9.60;99.90;;;;;;4951049;28;20036;-54
2023/12/11 03:06:51;;;;;;;4.28;1.48;;;9.60;99.90;;;;;;4951272;28;20027;-49
2023/12/11 03:09:16;;;;;;;1.85;1.17;;;9.70;99.90;;;;;;4950954;29;20106;-49
2023/12/11 03:11:42;;;;;;;2.45;1.10;;;9.80;99.90;;;;;;4950786;28;20039;-52
2023/12/11 03:14:07;;;;;;;2.35;1.50;;;9.80;99.90;;;;;;4951123;28;20035;-52
2023/12/11 03:16:33;;;;;;;1.70;1.10;;;9.90;99.90;;;;;;4950824;28;20090;-51
2023/12/11 03:18:58;;;;;;;2.58;1.15;;;10.00;99.90;;;;;;4950935;28;20039;-51
2023/12/11 03:21:24;;;;;;;3.53;1.45;;;10.00;99.90;;;;;;4950698;28;20417;-50
2023/12/11 03:23:49;;;;;;;4.43;1.45;;;10.00;99.90;;;;;;4933520;28;20063;-50
2023/12/11 03:26:15;;;;;;;4.88;1.90;;;10.00;99.90;;;;;;4950774;28;20015;-52
2023/12/11 03:28:40;;;;;;;2.15;1.00;;;10.00;99.90;;;;;;4950864;28;20536;-51
2023/12/11 03:31:06;;;;;;;2.20;1.13;;;10.00;99.90;;;;;;4950329;28;20031;-50
2023/12/11 03:33:31;;;;;;;5.03;1.13;;;10.00;99.90;;;;;;4950507;28;20050;-50
2023/12/11 03:35:57;;;;;;;2.80;1.55;;;9.90;99.90;;;;;;4950687;28;20027;-54
2023/12/11 03:38:22;;;;;;;3.10;1.30;;;9.90;99.90;;;;;;4950658;28;20406;-52
2023/12/11 03:40:48;;;;;;;2.55;1.02;;;10.00;99.90;;;;;;4950912;28;20027;-50
2023/12/11 03:43:13;;;;;;;5.13;1.35;;;10.00;99.90;;;;;;4950368;28;20510;-53
2023/12/11 03:45:39;;;;;;;3.22;1.50;;;10.00;99.90;;;;;;4950517;28;20169;-53
2023/12/11 03:48:04;;;;;;;3.42;1.25;;;10.00;99.90;;;;;;4949058;28;20348;-56
2023/12/11 03:50:30;;;;;;;4.95;1.65;;;10.00;99.90;;;;;;4950521;28;20027;-53
2023/12/11 03:52:55;;;;;;;5.32;1.15;;;10.00;99.90;;;;;;4952146;28;20031;-53
2023/12/11 03:55:21;;;;;;;4.53;1.17;;;10.00;99.90;;;;;;4953958;28;20066;-52
2023/12/11 03:57:47;;;;;;;7.45;2.22;;;10.00;99.90;;;;;;4953704;28;20486;-50
2023/12/11 04:00:13;;;;;;;8.13;1.55;;;10.00;99.90;;;;;;4953626;29;20023;-52
2023/12/11 04:02:38;;;;;;;4.65;1.30;;;10.00;99.90;;;;;;4953407;29;20024;-56
2023/12/11 04:05:04;;;;;;;7.53;3.05;;;10.10;99.90;;;;;;4953973;28;20029;-55
2023/12/11 04:07:29;;;;;;;4.30;1.65;;;10.00;99.90;;;;;;4936364;28;20034;-53
2023/12/11 04:09:55;;;;;;;5.70;1.30;;;10.00;99.90;;;;;;4953682;28;20501;-48
2023/12/11 04:12:20;;;;;;;9.45;1.80;;;10.10;99.90;;;;;;4953320;28;20039;-55
2023/12/11 04:14:46;;;;;;;15.13;2.03;;;10.10;99.90;;;;;;4953874;28;20066;-54
2023/12/11 04:17:11;;;;;;;8.18;1.33;;;10.10;99.90;;;;;;4953690;28;20551;-54
2023/12/11 04:19:37;;;;;;;4.07;1.20;;;10.20;99.90;;;;;;4953468;28;20039;-53
2023/12/11 04:22:02;;;;;;;3.60;1.38;;;10.10;99.90;;;;;;4953266;28;20035;-53
2023/12/11 04:24:28;;;;;;;7.95;1.60;;;10.20;99.90;;;;;;4953579;28;20034;-51
2023/12/11 04:26:53;;;;;;;4.93;1.25;;;10.20;99.90;;;;;;4936361;28;20067;-53
2023/12/11 04:29:19;;;;;;;6.15;2.13;;;10.20;99.90;;;;;;4953236;28;20049;-53
2023/12/11 04:31:44;;;;;;;9.10;2.28;;;10.30;99.90;;;;;;4952908;28;20211;-51
2023/12/11 04:34:10;;;;;;;8.25;2.28;;;10.30;99.90;;;;;;4953648;28;20494;-52
2023/12/11 04:36:35;;;;;;;3.20;1.05;;;10.30;99.90;;;;;;4953249;28;20051;-52
2023/12/11 04:39:01;;;;;;;2.92;1.38;;;10.20;99.90;;;;;;4953175;28;20029;-51
2023/12/11 04:41:26;;;;;;;5.15;1.52;;;10.30;99.90;;;;;;4952929;29;20375;-53
2023/12/11 04:43:52;;;;;;;3.83;1.55;;;10.20;99.90;;;;;;4953052;28;20031;-52
2023/12/11 04:46:17;;;;;;;5.50;1.23;;;10.20;99.90;;;;;;4953110;28;20023;-55
2023/12/11 04:48:43;;;;;;;2.88;1.30;;;10.20;99.90;;;;;;4953231;28;20103;-52
2023/12/11 04:51:08;;;;;;;8.25;1.52;;;10.20;99.90;;;;;;4953093;28;20402;-54
2023/12/11 04:53:34;;;;;;;6.00;1.20;;;10.20;99.90;;;;;;4953145;28;20034;-56
2023/12/11 04:56:05;;;;;;;6.35;1.02;;;10.20;99.90;;;;;;4953133;28;20054;-55
2023/12/11 04:58:31;;;;;;;4.65;1.60;;;10.20;99.90;;;;;;4952995;29;20055;-53
2023/12/11 05:00:56;;;;;;;3.20;1.42;;;10.20;99.90;;;;;;4952909;29;20046;-50
2023/12/11 05:03:22;;;;;;;4.90;1.45;;;10.30;99.90;;;;;;4952212;28;20088;-55
2023/12/11 05:05:47;;;;;;;8.07;1.88;;;10.30;99.90;;;;;;4952781;28;20031;-51
2023/12/11 05:08:13;;;;;;;6.63;1.85;;;10.30;99.90;;;;;;4952860;28;20440;-53
2023/12/11 05:10:38;;;;;;;5.75;1.80;;;10.30;99.90;;;;;;4952977;28;20520;-52
2023/12/11 05:13:04;;;;;;;7.38;1.73;;;10.20;99.90;;;;;;4952728;28;20213;-51
2023/12/11 05:15:29;;;;;;;4.97;1.80;;;10.20;99.90;;;;;;4952841;28;20019;-50
2023/12/11 05:17:55;;;;;;;6.63;1.42;;;10.20;99.90;;;;;;4952871;28;20034;-54
2023/12/11 05:20:20;;;;;;;8.43;2.38;;;10.20;99.90;;;;;;4919941;28;20027;-47
2023/12/11 05:22:46;;;;;;;4.15;1.60;;;10.10;99.90;;;;;;4952623;28;20031;-53
2023/12/11 05:25:12;;;;;;;4.38;1.60;;;10.20;99.90;;;;;;4952854;29;20019;-55
2023/12/11 05:27:37;;;;;;;8.52;1.98;;;10.10;99.90;;;;;;4952807;28;20072;-52
2023/12/11 05:30:03;;;;;;;7.43;1.73;;;10.10;99.90;;;;;;4952943;28;20031;-55
2023/12/11 05:32:29;;;;;;;3.67;2.20;;;10.10;99.90;;;;;;4952491;28;20406;-55
2023/12/11 05:34:54;;;;;;;6.10;1.40;;;10.10;99.90;;;;;;4952596;28;20023;-55
2023/12/11 05:37:20;;;;;;;6.38;1.60;;;10.10;99.90;;;;;;4952944;28;20039;-56
2023/12/11 05:39:45;;;;;;;8.43;2.70;;;10.10;99.90;;;;;;4952541;28;20027;-54
2023/12/11 05:42:11;;;;;;;4.88;1.42;;;10.10;99.90;;;;;;4935310;28;20076;-52
2023/12/11 05:44:36;;;;;;;5.53;2.15;;;10.10;99.90;;;;;;4952653;28;20487;-50
2023/12/11 05:47:02;;;;;;;9.77;1.65;;;10.10;99.90;;;;;;4952330;28;20399;-53
2023/12/11 05:49:28;;;;;;;4.80;2.70;;;10.10;99.90;;;;;;4935191;28;20482;-54
2023/12/11 05:51:53;;;;;;;4.68;1.30;;;10.10;99.90;;;;;;4952282;28;20023;-51
2023/12/11 05:54:19;;;;;;;5.07;1.65;;;10.10;99.90;;;;;;4952340;28;20027;-52
2023/12/11 05:56:44;;;;;;;13.82;1.83;;;10.10;99.90;;;;;;4952249;28;20036;-56
2023/12/11 05:59:10;;;;;;;9.85;2.72;;;10.00;99.90;;;;;;4952257;28;20088;-56
2023/12/11 06:01:36;;;;;;;5.85;1.60;;;10.00;99.90;;;;;;4951852;29;20371;-54
2023/12/11 06:04:03;;;;;;;6.40;2.13;;;10.00;99.90;;;;;;4951938;28;20035;-53
2023/12/11 06:06:28;;;;;;;10.75;3.13;;;10.00;99.90;;;;;;4951950;29;20015;-55
2023/12/11 06:08:54;;;;;;;3.47;1.63;;;10.00;99.90;;;;;;4952028;28;20509;-55
2023/12/11 06:11:19;;;;;;;6.97;1.73;;;9.90;99.90;;;;;;4951716;28;20019;-53
2023/12/11 06:13:45;;;;;;;7.85;1.25;;;9.80;99.90;;;;;;4951968;28;20399;-52
2023/12/11 06:16:10;;;;;;;4.45;2.00;;;9.90;99.90;;;;;;4952002;28;20082;-54
2023/12/11 06:18:38;;;;;;;10.25;2.03;;;9.90;99.90;;;;;;4952032;28;20030;-50
2023/12/11 06:21:04;;;;;;;2.80;1.73;;;9.80;99.90;;;;;;4952115;29;20034;-51
2023/12/11 06:23:30;;;;;;;9.30;1.70;;;9.80;99.90;;;;;;4951968;28;20031;-55
2023/12/11 06:25:55;;;;;;;5.43;1.52;;;9.80;99.90;;;;;;4952100;29;20023;-51
2023/12/11 06:28:21;;;;;;;5.03;1.88;;;9.80;99.90;;;;;;4951935;28;20042;-53
2023/12/11 06:30:46;;;;;;;8.57;2.22;;;9.80;99.90;;;;;;4951815;28;20027;-55
2023/12/11 06:33:12;;;;;;;6.05;1.58;;;9.90;99.90;;;;;;4951653;28;20379;-52
2023/12/11 06:35:37;;;;;;;4.47;2.28;;;9.80;99.90;;;;;;4951935;28;20081;-50
2023/12/11 06:38:03;;;;;;;5.03;2.28;;;9.90;99.90;;;;;;4951620;28;20031;-53
2023/12/11 06:40:29;;;;;;;3.97;1.50;;;9.90;99.90;;;;;;4951570;29;20082;-49
2023/12/11 06:42:54;;;;;;;2.97;1.60;;;9.90;99.90;;;;;;4951631;28;20487;-52
2023/12/11 06:45:20;;;;;;;3.88;1.40;;;9.80;99.90;;;;;;4952044;28;20062;-52
2023/12/11 06:47:45;;;;;;;5.20;1.70;;;9.80;99.90;;;;;;4972078;22;20058;-40
2023/12/11 06:50:12;;;;;;;4.30;1.65;;;9.80;99.90;;;;;;4970464;28;20028;-44
2023/12/11 06:52:37;;;;;;;3.92;1.20;;;9.80;99.90;;;;;;4970133;28;20107;-47
2023/12/11 06:55:04;;;;;;;5.75;2.05;;;9.80;99.90;;;;;;4970348;28;20111;-47
2023/12/11 06:57:29;;;;;;;4.80;1.30;;;9.70;99.90;;;;;;4970536;28;20038;-45
2023/12/11 06:59:55;;;;;;;3.47;1.98;;;9.70;99.90;;;;;;4970420;28;20105;-49
2023/12/11 07:02:20;;;;;;;4.45;1.10;;;9.70;99.90;;;;;;4970075;28;20058;-45
2023/12/11 07:04:46;;;;;;;4.20;1.42;;;9.60;99.90;;;;;;4970494;28;20046;-45
2023/12/11 07:07:11;;;;;;;1.42;1.33;;;9.60;99.90;;;;;;4970205;28;20525;-48
2023/12/11 07:09:37;;;;;;;6.57;1.60;;;9.70;99.90;;;;;;4970275;28;20023;-45
2023/12/11 07:12:02;;;;;;;2.95;1.20;;;9.70;99.90;;;;;;4970026;28;20260;-45
2023/12/11 07:14:28;;;;;;;6.40;2.00;;;9.70;99.90;;;;;;4970814;28;20401;-46
2023/12/11 07:16:53;;;;;;;4.18;2.20;;;9.70;99.90;;;;;;4969977;28;20530;-49
2023/12/11 07:19:19;;;;;;;4.65;1.88;;;9.70;99.90;;;;;;4970200;28;20041;-45
2023/12/11 07:21:45;;;;;;;2.47;1.63;;;9.70;99.90;;;;;;4969796;28;20596;-41
2023/12/11 07:24:11;;;;;;;4.38;1.35;;;9.70;99.90;;;;;;4970068;28;20116;-47
2023/12/11 07:26:36;;;;;;;4.55;1.50;;;9.80;99.90;;;;;;4969293;28;20023;-43
2023/12/11 07:29:03;;;;;;;2.92;1.40;;;9.80;99.90;;;;;;4970018;28;20051;-45
2023/12/11 07:31:29;;;;;;;4.32;1.88;;;9.70;99.90;;;;;;4969803;28;20019;-45
2023/12/11 07:33:55;;;;;;;5.38;1.60;;;9.80;99.90;;;;;;4969923;28;20525;-44
2023/12/11 07:36:21;;;;;;;6.43;1.80;;;9.80;99.90;;;;;;4970691;28;20144;-44
2023/12/11 07:38:46;;;;;;;5.28;2.35;;;9.80;99.90;;;;;;4970034;28;20456;-45
2023/12/11 07:41:17;;;;;;;8.15;1.52;;;9.80;99.90;;;;;;4969772;28;20387;-43
2023/12/11 07:43:43;;;;;;;6.00;2.50;;;9.90;99.90;;;;;;4952416;28;20069;-44
2023/12/11 07:46:15;;;;;;;7.07;1.48;;;9.90;99.90;;;;;;4970195;28;20105;-45
2023/12/11 07:48:41;;;;;;;4.22;1.67;;;10.00;99.90;;;;;;4970142;28;20041;-48
2023/12/11 07:51:24;;;;;;;2.65;1.33;;;10.00;99.90;;;;;;4969762;28;20023;-45
2023/12/11 07:53:50;;;;;;;3.00;1.30;;;10.10;99.90;;;;;;4969518;28;20477;-43
2023/12/11 07:56:22;;;;;;;4.10;1.75;;;10.10;99.90;;;;;;4970321;28;20019;-43
2023/12/11 07:58:52;;;;;;;4.82;1.83;;;10.10;99.90;;;;;;4969944;28;20037;-44
2023/12/11 08:01:18;;;;;;;2.95;1.25;;;10.10;99.90;;;;;;4969604;28;20386;-44
2023/12/11 08:03:43;;;;;;;9.60;2.25;;;10.20;99.90;;;;;;4969567;28;20110;-46
2023/12/11 08:06:09;;;;;;;7.13;1.65;;;10.20;99.90;;;;;;4969803;28;20026;-46
2023/12/11 08:08:43;;;;;;;5.70;2.22;;;10.30;99.90;;;;;;4952492;28;20027;-50
2023/12/11 08:11:18;;;;;;;4.95;1.63;;;10.30;99.90;;;;;;4969706;28;20023;-44
2023/12/11 08:13:44;;;;;;;;;;;10.30;99.90;;;;;;4970392;28;20031;-42
2023/12/11 08:16:10;;;;;;;;;;;10.30;99.90;;;;;;4970289;28;20278;-45
2023/12/11 08:18:35;;;;;;;6.38;2.13;;;10.50;99.90;;;;;;4969452;28;19997;-48
2023/12/11 08:21:01;;;;;;;6.07;1.58;;;10.50;99.90;;;;;;4969018;28;20536;-43
2023/12/11 08:23:27;;;;;;;13.88;1.95;;;10.60;99.90;;;;;;4951767;28;20509;-44
2023/12/11 08:25:52;;;;;;;6.07;1.50;;;10.70;99.90;;;;;;4952170;28;20023;-42
2023/12/11 08:28:18;;;;;;;10.27;2.35;;;10.70;99.90;;;;;;4969391;28;20468;-44
2023/12/11 08:30:43;;;;;;;4.70;1.67;;;10.80;99.90;;;;;;4969357;28;20031;-44
2023/12/11 08:33:10;;;;;;;6.95;1.80;;;10.80;99.90;;;;;;4969584;28;20418;-45
2023/12/11 08:35:35;;;;;;;7.78;2.08;;;10.90;99.90;;;;;;4969731;28;20105;-44
2023/12/11 08:38:01;;;;;;;9.45;1.73;;;10.90;99.90;;;;;;4969432;28;20516;-45
2023/12/11 08:40:26;;;;;;;6.43;1.77;;;10.90;99.90;;;;;;4963474;28;20039;-49
2023/12/11 08:42:53;;;;;;;6.68;1.60;;;10.90;99.90;;;;;;4967321;28;20436;-44
2023/12/11 08:45:18;;;;;;;8.88;1.70;;;10.90;99.90;;;;;;4971128;28;20053;-46
2023/12/11 08:47:44;;;;;;;10.95;2.03;;;10.90;99.90;;;;;;4953294;29;20023;-40
2023/12/11 08:50:10;;;;;;;5.00;1.73;;;10.90;99.90;;;;;;4962216;28;20034;-41
2023/12/11 08:52:37;;;;;;;8.38;1.92;;;11.00;99.90;;;;;;4957436;28;20410;-42
2023/12/11 08:55:03;;;;;;;10.02;1.73;;;11.00;99.90;;;;;;4953591;28;20085;-48
2023/12/11 08:57:28;;;;;;;6.28;1.67;;;11.00;99.90;;;;;;4964490;28;20444;-41
2023/12/11 08:59:54;;;;;;;7.13;1.80;;;11.10;99.90;;;;;;4956268;28;20028;-42
2023/12/11 09:02:19;;;;;;;9.88;1.52;;;11.20;99.90;;;;;;4946092;28;20089;-44
2023/12/11 09:04:45;;;;;;;7.47;1.55;;;11.20;99.90;;;;;;4949590;29;20027;-41
2023/12/11 09:07:10;;;;;;;4.85;1.70;;;11.30;99.90;;;;;;4967601;28;20050;-41
2023/12/11 09:09:37;;;;;;;10.00;2.40;;;11.30;99.90;;;;;;4972450;28;20051;-41
2023/12/11 09:12:03;;;;;;;9.98;1.50;;;11.30;99.90;;;;;;4971932;28;20460;-41
2023/12/11 09:14:29;;;;;;;11.57;1.92;;;11.40;99.90;;;;;;4972612;28;20027;-40
2023/12/11 09:16:54;;;;;;;10.18;2.72;;;11.40;99.90;;;;;;4972049;28;20448;-43
2023/12/11 09:19:20;;;;;;;9.00;1.90;;;11.40;99.90;;;;;;4971866;28;20031;-46
2023/12/11 09:21:45;;;;;;;13.40;2.30;;;11.50;99.90;;;;;;4954097;28;20039;-42
2023/12/11 09:24:12;;;;;;;10.73;1.63;;;11.50;99.90;;;;;;4971671;28;20101;-43
2023/12/11 09:26:37;;;;;;;12.40;2.03;;;11.50;99.90;;;;;;4971772;28;20110;-42
2023/12/11 09:29:03;;;;;;;7.85;2.65;;;11.50;99.90;;;;;;4971877;28;20493;-45
2023/12/11 09:31:29;;;;;;;7.95;1.90;;;11.50;99.90;;;;;;4971584;28;20398;-43
2023/12/11 09:33:54;;;;;;;11.60;1.65;;;11.50;99.90;;;;;;4971453;28;20027;-46
2023/12/11 09:36:20;;;;;;;10.85;2.00;;;11.50;99.90;;;;;;4971695;28;20487;-40
2023/12/11 09:38:45;;;;;;;9.70;2.13;;;11.50;99.90;;;;;;4971672;28;20039;-45
2023/12/11 09:41:11;;;;;;;10.27;2.13;;;11.50;99.90;;;;;;4961755;28;20031;-45
2023/12/11 09:43:37;;;;;;;11.95;2.65;;;11.60;99.90;;;;;;4960653;28;20027;-43
2023/12/11 09:46:08;;;;;;;9.05;1.70;;;11.70;99.90;;;;;;4972308;28;20458;-39
2023/12/11 09:48:34;;;;;;;11.52;2.00;;;12.40;99.90;;;;;;4956461;28;20047;-46
2023/12/11 09:51:01;;;;;;;9.23;2.30;;;13.10;99.90;;;;;;4953647;28;20027;-45
2023/12/11 09:53:30;;;;;;;13.10;2.30;;;13.40;99.90;;;;;;4961605;28;20034;-42
2023/12/11 09:55:56;;;;;;;12.13;2.83;;;13.30;99.90;;;;;;4968158;28;20037;-46
2023/12/11 09:58:22;;;;;;;15.20;3.25;;;13.20;99.90;;;;;;4953150;28;20027;-42
2023/12/11 10:00:48;;;;;;;9.95;2.88;;;13.30;99.90;;;;;;4961532;28;20034;-47
2023/12/11 10:03:15;;;;;;;10.02;2.83;;;13.20;99.90;;;;;;4953693;28;20395;-44
2023/12/11 10:05:41;;;;;;;8.75;2.00;;;13.10;99.90;;;;;;4952671;28;20027;-43
2023/12/11 10:08:06;;;;;;;15.98;2.88;;;13.00;99.90;;;;;;4971271;28;20023;-42
2023/12/11 10:10:33;;;;;;;9.82;2.22;;;12.90;99.90;;;;;;4971091;28;20114;-43
2023/12/11 10:13:00;;;;;;;12.48;2.60;;;12.80;99.90;;;;;;4968377;28;20110;-43
2023/12/11 10:15:34;;;;;;;9.55;3.28;;;12.70;99.90;;;;;;4953029;28;20414;-44
2023/12/11 10:18:04;;;;;;;12.43;2.60;;;12.60;99.90;;;;;;4984575;28;20074;-41
2023/12/11 10:20:29;;;;;;;9.65;2.17;;;12.60;99.90;;;;;;4991619;28;20027;-44
2023/12/11 10:22:56;;;;;;;14.63;3.13;;;12.60;99.90;;;;;;4953496;28;20038;-40
2023/12/11 10:25:28;;;;;;;14.57;3.88;;;12.50;99.90;;;;;;4967101;28;20019;-45
2023/12/11 10:28:05;;;;;;;19.38;2.55;;;12.50;99.90;;;;;;4951793;28;20026;-45
2023/12/11 10:30:31;;;;;;;11.02;2.75;;;12.40;99.90;;;;;;4967667;28;20081;-41
2023/12/11 10:33:01;;;;;;;12.20;2.70;;;12.50;99.90;;;;;;4953200;28;20030;-42
2023/12/11 10:35:27;;;;;;;12.77;3.58;;;12.50;99.90;;;;;;4972528;28;20480;-39
2023/12/11 10:37:59;;;;;;;15.57;2.90;;;12.40;99.90;;;;;;4955502;28;20031;-44
2023/12/11 10:40:41;;;;;;;8.93;2.00;;;12.50;99.90;;;;;;4970791;28;20023;-40
2023/12/11 10:43:07;;;;;;;13.63;2.80;;;12.50;99.90;;;;;;4959757;28;20077;-42
2023/12/11 10:45:34;;;;;;;7.10;1.75;;;12.40;99.90;;;;;;5003362;28;20502;-42
2023/12/11 10:48:01;;;;;;;11.32;2.42;;;12.50;99.90;;;;;;4975592;28;20047;-41
2023/12/11 10:50:27;;;;;;;15.90;3.35;;;12.40;99.90;;;;;;4965460;28;20023;-43
2023/12/11 10:52:53;;;;;;;17.10;3.38;;;12.50;99.90;;;;;;4951406;29;20456;-38
2023/12/11 10:55:19;;;;;;;13.70;2.40;;;12.50;99.90;;;;;;4951666;28;20035;-48
2023/12/11 10:57:45;;;;;;;17.80;2.50;;;12.50;99.90;;;;;;4952013;29;20027;-42
2023/12/11 11:00:14;;;;;;;12.05;2.80;;;12.50;99.90;;;;;;4951834;29;20088;-40
2023/12/11 11:02:44;;;;;;;12.95;2.60;;;12.50;99.90;;;;;;4955504;28;20534;-41
2023/12/11 11:05:11;;;;;;;9.45;2.30;;;12.60;99.90;;;;;;4970686;28;20470;-44
2023/12/11 11:07:44;;;;;;;9.95;2.25;;;12.60;99.90;;;;;;4959381;28;20026;-41
2023/12/11 11:10:22;;;;;;;15.10;3.03;;;12.60;99.90;;;;;;4953247;28;20046;-46
2023/12/11 11:13:02;;;;;;;11.65;3.17;;;12.60;99.90;;;;;;4961451;28;20023;-41
2023/12/11 11:15:28;;;;;;;15.50;3.30;;;12.60;99.90;;;;;;4950962;28;20027;-43
2023/12/11 11:18:05;;;;;;;11.57;2.35;;;12.60;99.90;;;;;;4956023;28;20426;-39
2023/12/11 11:20:35;;;;;;;10.05;2.10;;;12.60;99.90;;;;;;4959634;28;20106;-44
2023/12/11 11:23:18;;;;;;;12.90;2.10;;;12.60;99.90;;;;;;4969991;28;20042;-44
2023/12/11 11:25:54;;;;;;;18.90;2.20;;;12.60;99.90;;;;;;4957773;28;20371;-43
2023/12/11 11:28:40;;;;;;;14.73;2.67;;;12.60;99.90;;;;;;4970089;28;20066;-44
2023/12/11 11:31:07;;;;;;;6.25;1.98;;;12.60;99.90;;;;;;4970029;28;20019;-41
2023/12/11 11:33:44;;;;;;;12.68;2.50;;;12.60;99.90;;;;;;4968095;28;20054;-42
2023/12/11 11:36:09;;;;;;;13.45;3.25;;;12.60;99.90;;;;;;4951981;28;20114;-42
2023/12/11 11:38:55;;;;;;;7.47;2.05;;;12.70;99.90;;;;;;4950602;29;20114;-44
2023/12/11 11:41:28;;;;;;;13.63;2.08;;;12.70;99.90;;;;;;4955931;28;20486;-45
2023/12/11 11:44:01;;;;;;;14.80;4.35;;;12.60;99.90;;;;;;4950518;28;20137;-39
2023/12/11 11:46:28;;;;;;;8.02;2.22;;;12.60;99.90;;;;;;4950919;28;20372;-43
2023/12/11 11:48:53;;;;;;;9.18;2.83;;;12.70;99.90;;;;;;4964143;28;20080;-44
2023/12/11 11:51:21;;;;;;;11.75;2.33;;;12.70;99.90;;;;;;4951252;28;20023;-42
2023/12/11 11:53:54;;;;;;;11.85;2.28;;;12.70;99.90;;;;;;4949983;29;20081;-40
2023/12/11 11:56:19;;;;;;;8.85;2.08;;;12.70;99.90;;;;;;4951165;28;20031;-46
2023/12/11 11:58:45;;;;;;;5.03;1.85;;;12.70;99.90;;;;;;5003646;28;20033;-41
2023/12/11 12:01:11;;;;;;;9.70;2.55;;;12.70;99.90;;;;;;5051212;28;20477;-43
2023/12/11 12:03:43;;;;;;;9.18;3.08;;;12.70;99.90;;;;;;5050829;28;20036;-41
2023/12/11 12:06:10;;;;;;;11.25;1.67;;;12.80;99.90;;;;;;4986760;28;20062;-42
2023/12/11 12:08:36;;;;;;;12.63;2.35;;;12.80;99.90;;;;;;4960486;28;20039;-43
2023/12/11 12:11:05;;;;;;;10.43;3.75;;;12.70;99.90;;;;;;4968439;28;20033;-47
2023/12/11 12:13:36;;;;;;;8.55;2.17;;;12.80;99.90;;;;;;4955839;28;20717;-44
2023/12/11 12:16:02;;;;;;;14.70;1.95;;;12.80;99.90;;;;;;4973029;28;20026;-42
2023/12/11 12:18:28;;;;;;;12.05;2.17;;;12.80;99.90;;;;;;4964049;28;20435;-43
2023/12/11 12:21:06;;;;;;;12.90;2.58;;;12.70;99.90;;;;;;4965718;28;20102;-40
2023/12/11 12:23:32;;;;;;;10.02;3.28;;;12.80;99.90;;;;;;4968149;28;20023;-43
2023/12/11 12:26:00;;;;;;;4.45;1.55;;;12.80;99.90;;;;;;4957292;28;20148;-40
2023/12/11 12:28:26;;;;;;;11.30;2.53;;;12.80;99.90;;;;;;4936366;29;20491;-45
2023/12/11 12:30:53;;;;;;;7.85;1.80;;;12.80;99.90;;;;;;4959525;28;20030;-41
2023/12/11 12:33:19;;;;;;;15.32;1.90;;;12.80;99.90;;;;;;4958760;28;20079;-48
2023/12/11 12:35:46;;;;;;;7.63;2.22;;;12.80;99.90;;;;;;4953126;28;20063;-47
2023/12/11 12:38:13;;;;;;;11.80;2.15;;;12.70;99.90;;;;;;4953219;29;20118;-53
2023/12/11 12:40:39;;;;;;;12.93;2.10;;;12.80;99.90;;;;;;4956463;28;20026;-47
2023/12/11 12:43:12;;;;;;;8.75;2.53;;;12.80;99.90;;;;;;4961101;28;20040;-48
2023/12/11 12:45:39;;;;;;;6.85;1.90;;;12.80;99.90;;;;;;4958315;28;20046;-45